createdAt,value
2023-03-21T00:01:51.496Z,4.80
2023-03-21T00:04:19.418Z,4.03
2023-03-21T00:06:47.606Z,6.47
2023-03-21T00:09:16.929Z,6.13
2023-03-21T00:11:45.064Z,3.80
2023-03-21T00:14:14.514Z,3.90
2023-03-21T00:16:45.937Z,3.37
2023-03-21T00:19:14.651Z,2.57
2023-03-21T00:24:32.440Z,6.57
2023-03-21T00:27:21.645Z,2.50
2023-03-21T00:29:49.359Z,12.17
2023-03-21T00:32:17.306Z,5.27
2023-03-21T00:34:58.811Z,4.63
2023-03-21T00:37:30.328Z,5.87
2023-03-21T00:39:59.613Z,4.03
2023-03-21T00:42:28.021Z,8.07
2023-03-21T00:44:56.108Z,11.10
2023-03-21T00:47:25.856Z,5.63
2023-03-21T00:49:53.875Z,5.30
2023-03-21T00:52:34.209Z,9.37
2023-03-21T00:55:11.341Z,10.83
2023-03-21T00:57:39.896Z,6.37
2023-03-21T01:00:10.483Z,8.57
2023-03-21T01:02:38.624Z,8.13
2023-03-21T01:05:07.340Z,9.13
2023-03-21T01:07:35.415Z,13.33
2023-03-21T01:10:03.277Z,14.47
2023-03-21T01:12:32.524Z,7.20
2023-03-21T01:15:00.592Z,14.37
2023-03-21T01:17:28.511Z,7.20
2023-03-21T01:19:56.428Z,7.33
2023-03-21T01:22:24.484Z,6.23
2023-03-21T01:24:56.930Z,3.07
2023-03-21T01:27:28.582Z,7.53
2023-03-21T01:29:58.695Z,2.60
2023-03-21T01:32:26.699Z,5.50
2023-03-21T01:34:54.566Z,1.60
2023-03-21T01:37:22.740Z,3.57
2023-03-21T01:39:50.732Z,4.53
2023-03-21T01:42:18.612Z,2.77
2023-03-21T01:44:58.602Z,4.03
2023-03-21T01:47:26.662Z,1.73
2023-03-21T01:49:56.500Z,1.43
2023-03-21T01:52:36.406Z,2.20
2023-03-21T01:55:07.144Z,0.90
2023-03-21T01:57:45.110Z,1.83
2023-03-21T02:00:16.913Z,1.07
2023-03-21T02:02:52.554Z,4.07
2023-03-21T02:05:21.032Z,0.80
2023-03-21T02:07:48.969Z,0.80
2023-03-21T02:10:16.868Z,2.73
2023-03-21T02:12:45.331Z,3.23
2023-03-21T02:15:13.187Z,3.47
2023-03-21T02:17:44.683Z,2.50
2023-03-21T02:20:45.330Z,6.90
2023-03-21T02:23:57.835Z,2.40
2023-03-21T02:26:52.522Z,6.27
2023-03-21T02:29:54.238Z,5.40
2023-03-21T02:32:37.113Z,4.40
2023-03-21T02:35:16.391Z,3.80
2023-03-21T02:37:51.967Z,9.40
2023-03-21T02:40:24.843Z,6.43
2023-03-21T02:43:00.824Z,4.43
2023-03-21T02:45:30.173Z,3.90
2023-03-21T02:47:59.188Z,3.23
2023-03-21T02:50:29.957Z,6.73
2023-03-21T02:52:59.246Z,9.43
2023-03-21T02:55:27.755Z,4.43
2023-03-21T02:57:56.849Z,11.77
2023-03-21T03:00:26.766Z,11.10
2023-03-21T03:03:08.323Z,7.37
2023-03-21T03:05:41.009Z,5.47
2023-03-21T03:08:20.514Z,9.93
2023-03-21T03:10:56.652Z,10.83
2023-03-21T03:13:32.876Z,9.33
2023-03-21T03:16:05.305Z,13.03
2023-03-21T03:18:37.486Z,8.33
2023-03-21T03:21:09.042Z,5.67
2023-03-21T03:23:42.075Z,9.70
2023-03-21T03:26:10.505Z,9.77
2023-03-21T03:28:39.674Z,6.10
2023-03-21T03:31:10.152Z,11.10
2023-03-21T03:33:39.760Z,10.20
2023-03-21T03:36:10.865Z,6.77
2023-03-21T03:38:40.256Z,18.40
2023-03-21T03:41:10.579Z,13.00
2023-03-21T03:43:40.827Z,12.47
2023-03-21T03:46:12.364Z,7.80
2023-03-21T03:48:46.689Z,10.50
2023-03-21T03:51:17.045Z,12.27
2023-03-21T03:53:47.088Z,11.37
2023-03-21T03:56:14.929Z,8.50
2023-03-21T03:58:45.932Z,16.60
2023-03-21T04:01:14.204Z,8.97
2023-03-21T04:03:49.841Z,16.57
2023-03-21T04:06:19.129Z,10.10
2023-03-21T04:08:48.368Z,16.60
2023-03-21T04:11:16.404Z,16.33
2023-03-21T04:13:44.849Z,11.53
2023-03-21T04:16:12.952Z,16.07
2023-03-21T04:18:41.021Z,18.60
2023-03-21T04:21:10.813Z,13.33
2023-03-21T04:23:38.728Z,9.60
2023-03-21T04:26:08.322Z,14.00
2023-03-21T04:28:37.113Z,18.73
2023-03-21T04:31:11.089Z,15.63
2023-03-21T04:33:47.979Z,18.90
2023-03-21T04:36:25.198Z,7.67
2023-03-21T04:38:57.323Z,16.90
2023-03-21T04:41:26.602Z,15.53
2023-03-21T04:43:54.650Z,12.93
2023-03-21T04:46:22.560Z,12.33
2023-03-21T04:48:50.698Z,12.17
2023-03-21T04:51:18.659Z,13.20
2023-03-21T04:53:49.580Z,12.67
2023-03-21T04:56:17.832Z,14.27
2023-03-21T04:58:47.079Z,14.00
2023-03-21T05:01:14.992Z,10.07
2023-03-21T05:03:42.988Z,7.33
2023-03-21T05:06:11.265Z,8.90
2023-03-21T05:08:39.372Z,11.73
2023-03-21T05:11:07.573Z,14.93
2023-03-21T05:13:35.484Z,6.47
2023-03-21T05:16:04.940Z,9.17
2023-03-21T05:18:34.894Z,5.77
2023-03-21T05:21:04.271Z,5.63
2023-03-21T05:23:38.258Z,5.40
2023-03-21T05:26:07.794Z,5.67
2023-03-21T05:28:36.830Z,8.87
2023-03-21T05:31:06.561Z,5.03
2023-03-21T05:33:34.492Z,9.93
2023-03-21T05:36:02.475Z,8.17
2023-03-21T05:38:31.160Z,11.73
2023-03-21T05:40:59.057Z,10.30
2023-03-21T05:43:26.967Z,9.40
2023-03-21T05:45:54.962Z,9.07
2023-03-21T05:48:24.332Z,18.93
2023-03-21T05:50:52.175Z,12.70
2023-03-21T05:53:21.424Z,13.30
2023-03-21T05:55:50.719Z,17.07
2023-03-21T05:58:18.698Z,11.70
2023-03-21T06:00:46.656Z,21.47
2023-03-21T06:03:14.556Z,16.03
2023-03-21T06:05:43.802Z,10.00
2023-03-21T06:08:11.665Z,15.63
2023-03-21T06:10:39.575Z,13.90
2023-03-21T06:13:07.424Z,10.27
2023-03-21T06:15:35.600Z,19.07
2023-03-21T06:18:03.565Z,13.27
2023-03-21T06:20:31.454Z,15.70
2023-03-21T06:23:00.698Z,19.10
2023-03-21T06:25:29.002Z,12.37
2023-03-21T06:27:56.896Z,9.70
2023-03-21T06:30:24.987Z,21.03
2023-03-21T06:32:53.109Z,20.90
2023-03-21T06:35:21.170Z,22.50
2023-03-21T06:37:49.478Z,14.60
2023-03-21T06:40:19.069Z,17.20
2023-03-21T06:42:46.907Z,16.20
2023-03-21T06:45:14.750Z,13.70
2023-03-21T06:47:42.731Z,18.27
2023-03-21T06:50:11.843Z,19.53
2023-03-21T06:52:39.717Z,16.43
2023-03-21T06:55:09.201Z,18.97
2023-03-21T06:57:38.562Z,25.93
2023-03-21T07:00:08.957Z,27.03
2023-03-21T07:02:36.942Z,33.13
2023-03-21T07:05:05.399Z,37.73
2023-03-21T07:07:33.287Z,20.43
2023-03-21T07:10:01.214Z,28.27
2023-03-21T07:12:29.779Z,24.97
2023-03-21T07:14:59.177Z,28.57
2023-03-21T07:17:27.082Z,17.27
2023-03-21T07:19:55.363Z,25.67
2023-03-21T07:22:23.331Z,18.20
2023-03-21T07:25:03.967Z,22.83
2023-03-21T07:27:32.707Z,26.13
2023-03-21T07:30:01.953Z,25.30
2023-03-21T07:32:31.056Z,23.37
2023-03-21T07:35:01.647Z,36.07
2023-03-21T07:37:29.728Z,34.57
2023-03-21T07:39:57.716Z,31.70
2023-03-21T07:42:25.786Z,19.63
2023-03-21T07:44:55.088Z,28.10
2023-03-21T07:47:24.486Z,25.67
2023-03-21T07:49:52.426Z,18.93
2023-03-21T07:52:20.374Z,25.97
2023-03-21T07:54:48.266Z,28.80
2023-03-21T07:57:16.739Z,23.30
2023-03-21T07:59:44.661Z,23.87
2023-03-21T08:02:13.544Z,13.67
2023-03-21T08:04:43.211Z,25.07
2023-03-21T08:07:11.145Z,20.13
2023-03-21T08:09:39.004Z,18.40
2023-03-21T08:12:08.338Z,23.03
2023-03-21T08:14:36.952Z,24.00
2023-03-21T08:17:09.677Z,18.03
2023-03-21T08:19:37.790Z,16.40
2023-03-21T08:22:07.136Z,18.93
2023-03-21T08:24:35.764Z,18.83
2023-03-21T08:27:04.247Z,14.13
2023-03-21T08:29:32.278Z,13.97
2023-03-21T08:32:00.660Z,9.47
2023-03-21T08:34:28.613Z,11.07
2023-03-21T08:36:59.629Z,10.07
2023-03-21T08:39:29.083Z,12.47
2023-03-21T08:41:57.461Z,21.63
2023-03-21T08:44:26.142Z,17.43
2023-03-21T08:46:54.741Z,15.90
2023-03-21T08:49:22.773Z,15.60
2023-03-21T08:51:56.415Z,17.00
2023-03-21T08:54:24.548Z,10.53
2023-03-21T08:56:53.981Z,9.33
2023-03-21T08:59:22.246Z,21.73
2023-03-21T09:01:50.276Z,18.93
2023-03-21T09:04:19.143Z,10.93
2023-03-21T09:06:49.316Z,15.17
2023-03-21T09:09:18.032Z,16.93
2023-03-21T09:11:46.180Z,22.80
2023-03-21T09:14:15.728Z,21.73
2023-03-21T09:16:44.074Z,14.50
2023-03-21T09:19:12.925Z,17.90
2023-03-21T09:21:41.433Z,13.77
2023-03-21T09:24:09.855Z,18.10
2023-03-21T09:26:38.141Z,20.07
2023-03-21T09:29:07.745Z,23.57
2023-03-21T09:31:37.157Z,26.33
2023-03-21T09:34:05.053Z,18.43
2023-03-21T09:36:35.131Z,29.20
2023-03-21T09:39:04.071Z,12.27
2023-03-21T09:41:55.631Z,22.33
2023-03-21T09:44:32.247Z,22.03
2023-03-21T09:47:04.868Z,29.73
2023-03-21T09:49:34.609Z,19.97
2023-03-21T09:52:05.435Z,16.50
2023-03-21T09:54:36.143Z,14.87
2023-03-21T09:57:06.701Z,18.57
2023-03-21T09:59:38.240Z,17.10
2023-03-21T10:02:15.462Z,15.27
2023-03-21T10:04:46.668Z,23.43
2023-03-21T10:07:18.221Z,9.73
2023-03-21T10:09:47.178Z,17.90
2023-03-21T10:12:17.710Z,12.83
2023-03-21T10:14:46.500Z,16.70
2023-03-21T10:17:23.378Z,17.37
2023-03-21T10:19:51.357Z,17.43
2023-03-21T10:22:19.436Z,18.07
2023-03-21T10:24:47.318Z,18.67
2023-03-21T10:27:15.441Z,20.70
2023-03-21T10:29:44.321Z,8.30
2023-03-21T10:32:13.106Z,13.17
2023-03-21T10:34:43.513Z,17.17
2023-03-21T10:37:12.303Z,15.70
2023-03-21T10:39:40.902Z,8.77
2023-03-21T10:42:12.423Z,14.13
2023-03-21T10:44:40.326Z,24.47
2023-03-21T10:47:10.001Z,16.60
2023-03-21T10:50:05.709Z,16.23
2023-03-21T10:52:29.099Z,13.27
2023-03-21T10:55:06.941Z,17.57
2023-03-21T10:57:34.834Z,18.93
2023-03-21T11:00:08.342Z,13.50
2023-03-21T11:02:37.062Z,15.90
2023-03-21T11:05:05.775Z,8.60
2023-03-21T11:07:37.401Z,14.60
2023-03-21T11:10:17.188Z,12.73
2023-03-21T11:12:48.557Z,17.83
2023-03-21T11:15:27.456Z,18.70
2023-03-21T11:17:55.759Z,22.37
2023-03-21T11:20:24.200Z,14.70
2023-03-21T11:22:55.590Z,13.00
2023-03-21T11:25:25.869Z,4.80
2023-03-21T11:27:55.148Z,13.90
2023-03-21T11:30:24.520Z,19.47
2023-03-21T11:32:53.389Z,18.70
2023-03-21T11:35:23.008Z,17.53
2023-03-21T11:37:54.315Z,10.00
2023-03-21T11:40:24.220Z,10.13
2023-03-21T11:42:52.913Z,13.20
2023-03-21T11:45:21.848Z,9.77
2023-03-21T11:47:50.740Z,14.10
2023-03-21T11:50:20.628Z,11.47
2023-03-21T11:53:14.299Z,7.47
2023-03-21T11:55:47.316Z,9.63
2023-03-21T11:58:25.337Z,9.77
2023-03-21T12:00:57.249Z,10.23
2023-03-21T12:04:00.712Z,7.65
2023-03-21T12:06:31.480Z,13.43
2023-03-21T12:09:07.167Z,6.55
2023-03-21T12:11:38.993Z,8.47
2023-03-21T12:14:10.113Z,5.63
2023-03-21T12:16:44.441Z,13.93
2023-03-21T12:19:49.173Z,6.33
2023-03-21T12:22:20.373Z,9.20
2023-03-21T12:24:51.523Z,13.40
2023-03-21T12:27:20.998Z,13.67
2023-03-21T12:30:01.422Z,13.87
2023-03-21T12:32:39.602Z,15.73
2023-03-21T12:35:37.997Z,15.90
2023-03-21T12:38:13.586Z,8.87
2023-03-21T12:40:50.387Z,8.77
2023-03-21T12:43:30.119Z,8.43
2023-03-21T12:46:00.285Z,9.67
2023-03-21T12:48:32.232Z,11.60
2023-03-21T12:51:01.094Z,13.80
2023-03-21T12:53:36.096Z,8.20
2023-03-21T12:56:08.259Z,10.87
2023-03-21T12:58:43.147Z,3.50
2023-03-21T13:01:11.286Z,9.80
2023-03-21T13:03:41.782Z,8.20
2023-03-21T13:06:11.232Z,10.70
2023-03-21T13:08:40.178Z,8.83
2023-03-21T13:11:09.588Z,6.37
2023-03-21T13:13:39.922Z,5.77
2023-03-21T13:16:11.549Z,6.27
2023-03-21T13:18:44.768Z,6.47
2023-03-21T13:21:16.726Z,9.60
2023-03-21T13:23:56.927Z,9.00
2023-03-21T13:26:34.052Z,7.75
2023-03-21T13:29:02.456Z,4.22
2023-03-21T13:31:35.874Z,7.57
2023-03-21T13:34:09.927Z,11.30
2023-03-21T13:36:39.638Z,10.03
2023-03-21T13:39:07.944Z,10.27
2023-03-21T13:41:38.935Z,9.77
2023-03-21T13:44:09.848Z,10.33
2023-03-21T13:46:52.566Z,18.33
2023-03-21T13:49:28.185Z,14.07
2023-03-21T13:51:56.371Z,4.23
2023-03-21T13:54:29.665Z,6.53
2023-03-21T13:57:02.302Z,4.47
2023-03-21T13:59:44.011Z,10.73
2023-03-21T14:02:25.087Z,5.53
2023-03-21T14:05:06.626Z,6.83
2023-03-21T14:07:36.849Z,7.13
2023-03-21T14:10:06.907Z,10.23
2023-03-21T14:12:39.089Z,4.87
2023-03-21T14:15:16.258Z,3.53
2023-03-21T14:17:51.177Z,4.70
2023-03-21T14:20:21.534Z,11.07
2023-03-21T14:22:49.773Z,10.97
2023-03-21T14:25:19.179Z,7.17
2023-03-21T14:27:50.140Z,15.73
2023-03-21T14:30:22.404Z,8.90
2023-03-21T14:32:50.306Z,11.23
2023-03-21T14:35:18.181Z,6.63
2023-03-21T14:37:46.707Z,10.43
2023-03-21T14:40:22.696Z,10.60
2023-03-21T14:42:52.402Z,8.70
2023-03-21T14:45:21.839Z,11.87
2023-03-21T14:47:56.782Z,8.50
2023-03-21T14:50:26.107Z,6.87
2023-03-21T14:52:54.473Z,6.90
2023-03-21T14:55:22.380Z,13.40
2023-03-21T14:57:52.092Z,10.80
2023-03-21T15:00:24.384Z,12.60
2023-03-21T15:02:52.873Z,13.60
2023-03-21T15:05:23.283Z,15.70
2023-03-21T15:07:55.490Z,18.70
2023-03-21T15:10:24.148Z,9.67
2023-03-21T15:12:54.114Z,12.60
2023-03-21T15:15:23.882Z,12.03
2023-03-21T15:17:54.818Z,13.80
2023-03-21T15:20:23.458Z,10.93
2023-03-21T15:22:52.330Z,9.47
2023-03-21T15:25:22.185Z,9.07
2023-03-21T15:27:50.150Z,14.93
2023-03-21T15:30:23.656Z,7.70
2023-03-21T15:32:51.888Z,19.80
2023-03-21T15:35:21.895Z,8.50
2023-03-21T15:37:54.374Z,11.20
2023-03-21T15:40:23.568Z,12.00
2023-03-21T15:42:51.452Z,7.07
2023-03-21T15:45:24.666Z,13.93
2023-03-21T15:47:54.865Z,9.63
2023-03-21T15:50:27.604Z,10.77
2023-03-21T15:52:55.553Z,10.00
2023-03-21T15:55:26.224Z,11.13
2023-03-21T15:57:55.172Z,9.67
2023-03-21T16:00:26.740Z,11.83
2023-03-21T16:02:57.852Z,11.33
2023-03-21T16:05:27.673Z,12.80
2023-03-21T16:07:59.155Z,7.70
2023-03-21T16:10:29.202Z,7.93
2023-03-21T16:12:57.287Z,11.43
2023-03-21T16:15:26.939Z,15.00
2023-03-21T16:17:56.086Z,4.30
2023-03-21T16:20:25.711Z,12.27
2023-03-21T16:22:53.820Z,8.03
2023-03-21T16:25:21.812Z,11.23
2023-03-21T16:27:49.706Z,14.17
2023-03-21T16:30:19.294Z,6.43
2023-03-21T16:32:49.899Z,11.37
2023-03-21T16:35:17.969Z,11.17
2023-03-21T16:37:47.153Z,12.33
2023-03-21T16:40:18.463Z,5.70
2023-03-21T16:42:46.550Z,14.37
2023-03-21T16:45:14.783Z,9.50
2023-03-21T16:47:42.905Z,6.93
2023-03-21T16:50:21.137Z,7.73
2023-03-21T16:52:49.077Z,9.33
2023-03-21T16:55:17.022Z,10.03
2023-03-21T16:57:44.949Z,8.10
2023-03-21T17:00:16.636Z,8.33
2023-03-21T17:02:44.575Z,16.57
2023-03-21T17:05:12.716Z,7.77
2023-03-21T17:07:44.189Z,11.57
2023-03-21T17:10:16.411Z,8.30
2023-03-21T17:12:44.662Z,8.87
2023-03-21T17:15:13.766Z,8.70
2023-03-21T17:17:42.004Z,6.63
2023-03-21T17:20:18.501Z,11.50
2023-03-21T17:22:48.016Z,16.03
2023-03-21T17:25:16.211Z,12.43
2023-03-21T17:27:44.255Z,20.57
2023-03-21T17:30:18.321Z,16.00
2023-03-21T17:32:46.585Z,8.27
2023-03-21T17:35:14.559Z,7.87
2023-03-21T17:37:42.560Z,7.20
2023-03-21T17:40:13.982Z,12.67
2023-03-21T17:42:42.338Z,10.37
2023-03-21T17:45:11.414Z,13.60
2023-03-21T17:47:39.520Z,12.10
2023-03-21T17:50:12.582Z,8.10
2023-03-21T17:52:40.488Z,11.73
2023-03-21T17:55:08.854Z,14.53
2023-03-21T17:57:38.740Z,14.83
2023-03-21T18:00:11.885Z,17.37
2023-03-21T18:02:40.500Z,11.33
2023-03-21T18:05:10.094Z,16.10
2023-03-21T18:08:07.863Z,14.60
2023-03-21T18:10:26.999Z,10.13
2023-03-21T18:12:56.466Z,10.47
2023-03-21T18:15:24.772Z,11.70
2023-03-21T18:17:52.964Z,12.97
2023-03-21T18:20:23.725Z,20.57
2023-03-21T18:22:52.779Z,11.07
2023-03-21T18:25:21.271Z,15.47
2023-03-21T18:28:09.590Z,12.17
2023-03-21T18:30:56.970Z,11.77
2023-03-21T18:33:27.388Z,13.90
2023-03-21T18:35:59.860Z,12.63
2023-03-21T18:38:28.203Z,14.70
2023-03-21T18:40:56.117Z,13.10
2023-03-21T18:46:14.718Z,10.97
2023-03-21T18:48:42.868Z,19.50
2023-03-21T18:51:10.835Z,14.13
2023-03-21T18:53:39.260Z,12.13
2023-03-21T18:56:10.058Z,10.07
2023-03-21T18:58:38.635Z,19.90
2023-03-21T19:01:06.817Z,13.37
2023-03-21T19:03:37.601Z,11.40
2023-03-21T19:06:07.125Z,12.30
2023-03-21T19:08:38.692Z,21.17
2023-03-21T19:11:08.294Z,11.53
2023-03-21T19:13:36.889Z,17.70
2023-03-21T19:16:05.026Z,18.87
2023-03-21T19:18:52.051Z,13.60
2023-03-21T19:21:23.239Z,15.57
2023-03-21T19:26:39.392Z,14.37
2023-03-21T19:29:07.580Z,13.33
2023-03-21T19:31:35.561Z,14.57
2023-03-21T19:34:04.457Z,13.37
2023-03-21T19:36:34.786Z,15.87
2023-03-21T19:39:03.671Z,15.83
2023-03-21T19:41:32.091Z,9.97
2023-03-21T19:44:00.332Z,8.27
2023-03-21T19:46:28.399Z,12.23
2023-03-21T19:48:56.973Z,16.57
2023-03-21T19:51:29.807Z,13.30
2023-03-21T19:53:59.846Z,10.67
2023-03-21T19:56:28.097Z,7.50
2023-03-21T19:58:56.299Z,14.80
2023-03-21T20:01:24.816Z,12.20
2023-03-21T20:03:52.908Z,18.10
2023-03-21T20:06:22.256Z,9.30
2023-03-21T20:09:47.318Z,20.13
2023-03-21T20:11:39.778Z,15.50
2023-03-21T20:14:07.731Z,11.00
2023-03-21T20:16:36.977Z,15.53
2023-03-21T20:19:05.818Z,13.17
2023-03-21T20:21:44.439Z,10.87
2023-03-21T20:24:16.448Z,14.10
2023-03-21T20:26:46.525Z,16.03
2023-03-21T20:32:02.688Z,12.03
2023-03-21T20:34:30.792Z,11.33
2023-03-21T20:36:59.265Z,8.70
2023-03-21T20:39:29.432Z,8.30
2023-03-21T20:41:59.694Z,12.57
2023-03-21T20:44:48.445Z,9.20
2023-03-21T20:47:15.864Z,11.17
2023-03-21T20:49:44.330Z,15.93
2023-03-21T20:55:00.184Z,8.20
2023-03-21T20:57:30.220Z,18.03
2023-03-21T20:59:58.134Z,12.30
2023-03-21T21:02:26.562Z,12.60
2023-03-21T21:05:24.090Z,14.00
2023-03-21T21:07:43.612Z,10.23
2023-03-21T21:10:12.472Z,10.40
2023-03-21T21:12:45.057Z,18.13
2023-03-21T21:15:14.295Z,15.53
2023-03-21T21:20:33.597Z,15.43
2023-03-21T21:23:01.544Z,14.03
2023-03-21T21:25:30.630Z,10.50
2023-03-21T21:28:01.691Z,15.60
2023-03-21T21:30:30.416Z,15.80
2023-03-21T21:32:59.798Z,14.23
2023-03-21T21:35:27.932Z,19.47
2023-03-21T21:37:56.011Z,7.83
2023-03-21T21:40:24.263Z,13.50
2023-03-21T21:42:52.240Z,20.17
2023-03-21T21:45:21.602Z,10.10
2023-03-21T21:47:49.674Z,23.27
2023-03-21T21:50:17.650Z,17.40
2023-03-21T21:52:52.700Z,15.63
2023-03-21T21:55:20.708Z,13.50
2023-03-21T21:57:50.319Z,15.03
2023-03-21T22:00:21.437Z,16.43
2023-03-21T22:02:49.368Z,13.67
2023-03-21T22:05:18.995Z,16.37
2023-03-21T22:07:47.069Z,11.30
2023-03-21T22:10:15.143Z,21.57
2023-03-21T22:12:43.076Z,15.27
2023-03-21T22:15:12.087Z,17.70
2023-03-21T22:17:41.732Z,6.83
2023-03-21T22:20:12.054Z,11.10
2023-03-21T22:22:39.974Z,11.80
2023-03-21T22:25:09.437Z,12.53
2023-03-21T22:27:37.356Z,13.40
2023-03-21T22:30:07.645Z,13.10
2023-03-21T22:32:35.892Z,5.73
2023-03-21T22:35:05.669Z,13.63
2023-03-21T22:37:34.247Z,13.07
2023-03-21T22:40:02.112Z,9.70
2023-03-21T22:42:30.011Z,8.00
2023-03-21T22:44:57.923Z,7.77
2023-03-21T22:47:26.283Z,8.97
2023-03-21T22:49:54.151Z,7.30
2023-03-21T22:52:23.609Z,6.60
2023-03-21T22:54:51.480Z,12.07
2023-03-21T22:57:20.133Z,9.10
2023-03-21T22:59:48.013Z,7.80
2023-03-21T23:02:16.143Z,9.67
2023-03-21T23:04:43.956Z,11.13
2023-03-21T23:07:12.035Z,9.07
2023-03-21T23:09:41.300Z,9.90
2023-03-21T23:12:09.192Z,6.33
2023-03-21T23:14:37.022Z,10.73
2023-03-21T23:17:04.912Z,4.20
2023-03-21T23:19:33.280Z,8.00
2023-03-21T23:22:01.261Z,4.60
2023-03-21T23:24:29.088Z,2.90
2023-03-21T23:26:58.310Z,3.87
2023-03-21T23:29:26.126Z,3.40
2023-03-21T23:31:53.953Z,2.47
2023-03-21T23:34:21.828Z,9.10
2023-03-21T23:36:49.620Z,2.53
2023-03-21T23:39:18.655Z,4.70
2023-03-21T23:41:46.582Z,6.23
2023-03-21T23:44:16.332Z,3.53
2023-03-21T23:46:44.216Z,6.07
2023-03-21T23:49:12.169Z,5.87
2023-03-21T23:51:40.071Z,4.70
2023-03-21T23:54:07.952Z,8.00
2023-03-21T23:56:35.888Z,3.87
2023-03-21T23:59:03.779Z,5.60
